createdAt,value
2016-09-06T00:00:08.062Z,18.3
2016-09-06T00:00:28.656Z,18.3
2016-09-06T00:00:49.243Z,18.4
2016-09-06T00:01:09.819Z,18.4
2016-09-06T00:01:30.373Z,18.4
2016-09-06T00:01:50.915Z,18.3
2016-09-06T00:02:11.487Z,18.3
2016-09-06T00:02:32.040Z,18.4
2016-09-06T00:02:52.601Z,18.3
2016-09-06T00:03:13.158Z,18.4
2016-09-06T00:03:33.686Z,18.4
2016-09-06T00:03:54.256Z,18.4
2016-09-06T00:04:14.855Z,18.3
2016-09-06T00:04:35.424Z,18.3
2016-09-06T00:04:56.011Z,18.4
2016-09-06T00:05:16.584Z,18.4
2016-09-06T00:05:37.144Z,18.4
2016-09-06T00:05:57.687Z,18.3
2016-09-06T00:06:18.282Z,18.4
2016-09-06T00:06:38.862Z,18.3
2016-09-06T00:06:59.474Z,18.4
2016-09-06T00:07:20.033Z,18.4
2016-09-06T00:07:40.605Z,18.4
2016-09-06T00:08:01.165Z,18.3
2016-09-06T00:08:21.747Z,18.4
2016-09-06T00:08:42.331Z,18.3
2016-09-06T00:09:02.900Z,18.2
2016-09-06T00:09:23.448Z,18.2
2016-09-06T00:09:44.016Z,18.4
2016-09-06T00:10:04.592Z,18.3
2016-09-06T00:10:25.163Z,18.2
2016-09-06T00:10:45.738Z,18.2
2016-09-06T00:11:06.308Z,18.2
2016-09-06T00:11:26.868Z,18.3
2016-09-06T00:11:47.458Z,18.3
2016-09-06T00:12:08.053Z,18.3
2016-09-06T00:12:28.616Z,18.3
2016-09-06T00:12:49.161Z,18.2
2016-09-06T00:13:09.728Z,18.3
2016-09-06T00:13:30.302Z,18.3
2016-09-06T00:13:50.873Z,18.3
2016-09-06T00:14:11.452Z,18.3
2016-09-06T00:14:32.017Z,18.2
2016-09-06T00:14:52.569Z,18.3
2016-09-06T00:15:13.149Z,18.2
2016-09-06T00:15:33.715Z,18.2
2016-09-06T00:15:54.295Z,18.2
2016-09-06T00:16:14.879Z,18.2
2016-09-06T00:16:35.473Z,18.3
2016-09-06T00:16:56.039Z,18.1
2016-09-06T00:17:16.611Z,18.1
2016-09-06T00:17:37.157Z,18.2
2016-09-06T00:17:57.705Z,18.1
2016-09-06T00:18:18.271Z,18.1
2016-09-06T00:18:38.824Z,18.1
2016-09-06T00:18:59.418Z,18.2
2016-09-06T00:19:19.993Z,18.1
2016-09-06T00:19:40.554Z,18.1
2016-09-06T00:20:01.130Z,18.1
2016-09-06T00:20:21.707Z,18
2016-09-06T00:20:42.285Z,18.1
2016-09-06T00:21:02.856Z,18.1
2016-09-06T00:21:23.413Z,18.1
2016-09-06T00:21:43.949Z,18
2016-09-06T00:22:04.536Z,18.1
2016-09-06T00:22:25.125Z,18.1
2016-09-06T00:22:45.690Z,18
2016-09-06T00:23:06.225Z,18
2016-09-06T00:23:26.790Z,18
2016-09-06T00:23:47.377Z,18
2016-09-06T00:24:07.924Z,18.1
2016-09-06T00:24:28.482Z,18.1
2016-09-06T00:24:49.052Z,18
2016-09-06T00:25:09.663Z,18
2016-09-06T00:25:30.228Z,18
2016-09-06T00:25:50.779Z,18
2016-09-06T00:26:11.354Z,18.1
2016-09-06T00:26:31.930Z,18
2016-09-06T00:26:52.497Z,18.1
2016-09-06T00:27:13.047Z,18.1
2016-09-06T00:27:33.612Z,18.1
2016-09-06T00:27:54.177Z,18
2016-09-06T00:28:14.761Z,18
2016-09-06T00:28:35.333Z,18
2016-09-06T00:28:55.904Z,18
2016-09-06T00:29:16.499Z,18
2016-09-06T00:29:37.063Z,18
2016-09-06T00:29:57.629Z,18
2016-09-06T00:30:18.184Z,18
2016-09-06T00:30:38.734Z,18
2016-09-06T00:30:59.289Z,18
2016-09-06T00:31:19.870Z,18.1
2016-09-06T00:31:40.447Z,18
2016-09-06T00:32:01.009Z,18
2016-09-06T00:32:21.542Z,17.9
2016-09-06T00:32:42.089Z,18
2016-09-06T00:33:02.647Z,18
2016-09-06T00:33:23.236Z,18
2016-09-06T00:33:43.790Z,18
2016-09-06T00:34:04.365Z,18
2016-09-06T00:34:24.949Z,17.9
2016-09-06T00:34:45.500Z,17.9
2016-09-06T00:35:06.072Z,17.9
2016-09-06T00:35:26.633Z,17.9
2016-09-06T00:35:47.208Z,17.9
2016-09-06T00:36:07.765Z,17.9
2016-09-06T00:36:28.354Z,17.9
2016-09-06T00:36:48.908Z,17.8
2016-09-06T00:37:09.479Z,17.9
2016-09-06T00:37:30.044Z,17.9
2016-09-06T00:37:50.624Z,17.8
2016-09-06T00:38:11.185Z,17.8
2016-09-06T00:38:31.761Z,17.9
2016-09-06T00:38:52.317Z,17.9
2016-09-06T00:39:12.869Z,17.8
2016-09-06T00:39:33.445Z,17.7
2016-09-06T00:39:54.021Z,17.8
2016-09-06T00:40:14.555Z,17.8
2016-09-06T00:40:35.094Z,17.7
2016-09-06T00:40:55.649Z,17.8
2016-09-06T00:41:16.210Z,17.8
2016-09-06T00:41:36.778Z,17.8
2016-09-06T00:41:57.358Z,17.8
2016-09-06T00:42:17.925Z,17.7
2016-09-06T00:42:38.480Z,17.7
2016-09-06T00:42:59.060Z,17.7
2016-09-06T00:43:19.624Z,17.8
2016-09-06T00:43:40.206Z,17.7
2016-09-06T00:44:00.775Z,17.7
2016-09-06T00:44:21.342Z,17.7
2016-09-06T00:44:41.920Z,17.7
2016-09-06T00:45:02.465Z,17.6
2016-09-06T00:45:23.036Z,17.7
2016-09-06T00:45:43.608Z,17.6
2016-09-06T00:46:04.173Z,17.6
2016-09-06T00:46:24.737Z,17.5
2016-09-06T00:46:45.288Z,17.6
2016-09-06T00:47:05.868Z,17.6
2016-09-06T00:47:26.457Z,17.6
2016-09-06T00:47:47.030Z,17.7
2016-09-06T00:48:07.603Z,17.6
2016-09-06T00:48:28.171Z,17.6
2016-09-06T00:48:48.740Z,17.6
2016-09-06T00:49:09.304Z,17.6
2016-09-06T00:49:29.872Z,17.6
2016-09-06T00:49:50.442Z,17.6
2016-09-06T00:50:10.994Z,17.6
2016-09-06T00:50:31.530Z,17.6
2016-09-06T00:50:52.100Z,17.6
2016-09-06T00:51:12.679Z,17.5
2016-09-06T00:51:33.246Z,17.5
2016-09-06T00:51:53.828Z,17.5
2016-09-06T00:52:14.410Z,17.4
2016-09-06T00:52:34.970Z,17.5
2016-09-06T00:52:55.547Z,17.4
2016-09-06T00:53:16.125Z,17.5
2016-09-06T00:53:36.682Z,17.5
2016-09-06T00:53:57.257Z,17.5
2016-09-06T00:54:17.834Z,17.4
2016-09-06T00:54:38.366Z,17.4
2016-09-06T00:54:58.961Z,17.4
2016-09-06T00:55:19.511Z,17.4
2016-09-06T00:55:40.066Z,17.4
2016-09-06T00:56:00.645Z,17.4
2016-09-06T00:56:21.217Z,17.4
2016-09-06T00:56:41.777Z,17.3
2016-09-06T00:57:02.332Z,17.3
2016-09-06T00:57:22.920Z,17.4
2016-09-06T00:57:43.502Z,17.4
2016-09-06T00:58:04.092Z,17.4
2016-09-06T00:58:24.641Z,17.3
2016-09-06T00:58:45.209Z,17.3
2016-09-06T00:59:05.805Z,17.3
2016-09-06T00:59:26.359Z,17.3
2016-09-06T00:59:46.933Z,17.3
2016-09-06T01:00:07.533Z,17.3
2016-09-06T01:00:28.091Z,17.2
2016-09-06T01:00:48.697Z,17.3
2016-09-06T01:01:09.254Z,17.2
2016-09-06T01:01:29.816Z,17.2
2016-09-06T01:01:50.384Z,17.3
2016-09-06T01:02:10.991Z,17.2
2016-09-06T01:02:31.531Z,17.3
2016-09-06T01:02:52.094Z,17.2
2016-09-06T01:03:12.670Z,17.2
2016-09-06T01:03:33.243Z,17.1
2016-09-06T01:03:53.783Z,17.2
2016-09-06T01:04:14.398Z,17.2
2016-09-06T01:04:34.954Z,17.2
2016-09-06T01:04:55.529Z,17.2
2016-09-06T01:05:16.107Z,17.1
2016-09-06T01:05:36.705Z,17.1
2016-09-06T01:05:57.263Z,17.1
2016-09-06T01:06:17.818Z,17.1
2016-09-06T01:06:38.399Z,17.1
2016-09-06T01:06:58.981Z,17.1
2016-09-06T01:07:19.549Z,17.2
2016-09-06T01:07:40.106Z,17.1
2016-09-06T01:08:00.681Z,17.2
2016-09-06T01:08:21.258Z,17.1
2016-09-06T01:08:41.839Z,17
2016-09-06T01:09:02.403Z,17.1
2016-09-06T01:09:22.977Z,17
2016-09-06T01:09:43.533Z,17
2016-09-06T01:10:04.140Z,17
2016-09-06T01:10:24.689Z,17.1
2016-09-06T01:10:45.253Z,17
2016-09-06T01:11:05.825Z,17
2016-09-06T01:11:26.392Z,17.1
2016-09-06T01:11:46.968Z,17
2016-09-06T01:12:07.537Z,17
2016-09-06T01:12:28.111Z,17
2016-09-06T01:12:48.668Z,16.9
2016-09-06T01:13:09.214Z,17
2016-09-06T01:13:29.788Z,17
2016-09-06T01:13:50.354Z,17
2016-09-06T01:14:10.923Z,16.9
2016-09-06T01:14:31.488Z,17
2016-09-06T01:14:52.059Z,17
2016-09-06T01:15:12.629Z,17
2016-09-06T01:15:33.202Z,17
2016-09-06T01:15:53.788Z,17
2016-09-06T01:16:14.354Z,17
2016-09-06T01:16:34.922Z,16.9
2016-09-06T01:16:55.951Z,16.9
2016-09-06T01:17:16.526Z,16.9
2016-09-06T01:17:37.102Z,16.9
2016-09-06T01:17:57.673Z,16.9
2016-09-06T01:18:18.242Z,16.9
2016-09-06T01:18:38.776Z,16.9
2016-09-06T01:18:59.341Z,16.9
2016-09-06T01:19:19.924Z,16.9
2016-09-06T01:19:40.492Z,16.9
2016-09-06T01:20:01.073Z,16.9
2016-09-06T01:20:21.655Z,16.9
2016-09-06T01:20:42.216Z,16.9
2016-09-06T01:21:02.838Z,16.9
2016-09-06T01:21:23.400Z,16.9
2016-09-06T01:21:43.968Z,16.8
2016-09-06T01:22:04.566Z,16.9
2016-09-06T01:22:25.134Z,16.9
2016-09-06T01:22:45.703Z,16.9
2016-09-06T01:23:06.252Z,16.9
2016-09-06T01:23:26.813Z,16.9
2016-09-06T01:23:47.391Z,16.8
2016-09-06T01:24:07.952Z,16.8
2016-09-06T01:24:28.520Z,16.8
2016-09-06T01:24:49.099Z,16.8
2016-09-06T01:25:09.761Z,16.8
2016-09-06T01:25:30.330Z,16.8
2016-09-06T01:25:50.901Z,16.8
2016-09-06T01:26:11.490Z,16.8
2016-09-06T01:26:32.063Z,16.8
2016-09-06T01:26:52.608Z,16.8
2016-09-06T01:27:13.186Z,16.8
2016-09-06T01:27:33.771Z,16.8
2016-09-06T01:27:54.350Z,16.8
2016-09-06T01:28:14.963Z,16.8
2016-09-06T01:28:35.528Z,16.7
2016-09-06T01:28:56.135Z,16.7
2016-09-06T01:29:16.695Z,16.7
2016-09-06T01:29:37.256Z,16.8
2016-09-06T01:29:57.845Z,16.7
2016-09-06T01:30:18.437Z,16.7
2016-09-06T01:30:39.051Z,16.7
2016-09-06T01:30:59.600Z,16.8
2016-09-06T01:31:20.169Z,16.7
2016-09-06T01:31:40.750Z,16.7
2016-09-06T01:32:01.329Z,16.7
2016-09-06T01:32:21.925Z,16.7
2016-09-06T01:32:42.501Z,16.7
2016-09-06T01:33:03.095Z,16.8
2016-09-06T01:33:23.667Z,16.6
2016-09-06T01:33:44.258Z,16.8
2016-09-06T01:34:04.828Z,16.7
2016-09-06T01:34:25.407Z,16.7
2016-09-06T01:34:45.997Z,16.7
2016-09-06T01:35:06.571Z,16.7
2016-09-06T01:35:27.128Z,16.7
2016-09-06T01:35:47.707Z,16.7
2016-09-06T01:36:08.245Z,16.7
2016-09-06T01:36:28.816Z,16.8
2016-09-06T01:36:49.377Z,16.8
2016-09-06T01:37:09.970Z,16.8
2016-09-06T01:37:30.537Z,16.7
2016-09-06T01:37:51.099Z,16.7
2016-09-06T01:38:11.684Z,16.8
2016-09-06T01:38:32.274Z,16.7
2016-09-06T01:38:52.863Z,16.7
2016-09-06T01:39:13.401Z,16.7
2016-09-06T01:39:33.958Z,16.7
2016-09-06T01:39:54.522Z,16.7
2016-09-06T01:40:15.079Z,16.7
2016-09-06T01:40:35.646Z,16.7
2016-09-06T01:40:57.781Z,16.7
2016-09-06T01:41:18.360Z,16.7
2016-09-06T01:41:38.902Z,16.7
2016-09-06T01:41:59.460Z,16.7
2016-09-06T01:42:20.044Z,16.7
2016-09-06T01:42:40.584Z,16.8
2016-09-06T01:43:01.171Z,16.7
2016-09-06T01:43:21.719Z,16.8
2016-09-06T01:43:42.275Z,16.8
2016-09-06T01:44:02.837Z,16.7
2016-09-06T01:44:23.400Z,16.7
2016-09-06T01:44:43.940Z,16.7
2016-09-06T01:45:04.573Z,16.7
2016-09-06T01:45:25.129Z,16.7
2016-09-06T01:45:45.678Z,16.8
2016-09-06T01:46:06.259Z,16.7
2016-09-06T01:46:26.824Z,16.7
2016-09-06T01:46:47.421Z,16.7
2016-09-06T01:47:08.033Z,16.8
2016-09-06T01:47:28.652Z,16.8
2016-09-06T01:47:49.209Z,16.8
2016-09-06T01:48:09.758Z,16.8
2016-09-06T01:48:30.309Z,16.7
2016-09-06T01:48:50.855Z,16.7
2016-09-06T01:49:11.461Z,16.8
2016-09-06T01:49:32.044Z,16.8
2016-09-06T01:49:52.612Z,16.7
2016-09-06T01:50:13.177Z,16.8
2016-09-06T01:50:33.745Z,16.7
2016-09-06T01:50:54.306Z,16.7
2016-09-06T01:51:14.873Z,16.7
2016-09-06T01:51:35.437Z,16.7
2016-09-06T01:51:55.995Z,16.8
2016-09-06T01:52:16.575Z,16.8
2016-09-06T01:52:37.150Z,16.8
2016-09-06T01:52:57.731Z,16.8
2016-09-06T01:53:18.299Z,16.7
2016-09-06T01:53:38.869Z,16.8
2016-09-06T01:53:59.437Z,16.8
2016-09-06T01:54:19.999Z,16.8
2016-09-06T01:54:40.583Z,16.7
2016-09-06T01:55:01.158Z,16.7
2016-09-06T01:55:21.711Z,16.7
2016-09-06T01:55:42.276Z,16.7
2016-09-06T01:56:02.845Z,16.8
2016-09-06T01:56:23.407Z,16.7
2016-09-06T01:56:43.997Z,16.8
2016-09-06T01:57:04.588Z,16.7
2016-09-06T01:57:25.162Z,16.7
2016-09-06T01:57:45.723Z,16.7
2016-09-06T01:58:06.293Z,16.8
2016-09-06T01:58:26.865Z,16.7
2016-09-06T01:58:47.429Z,16.7
2016-09-06T01:59:08.028Z,16.8
2016-09-06T01:59:28.621Z,16.8
2016-09-06T01:59:49.194Z,16.7
2016-09-06T02:00:09.746Z,16.8
2016-09-06T02:00:30.339Z,16.7
2016-09-06T02:00:50.901Z,16.7
2016-09-06T02:01:11.485Z,16.8
2016-09-06T02:01:32.088Z,16.7
2016-09-06T02:01:52.659Z,16.7
2016-09-06T02:02:13.221Z,16.7
2016-09-06T02:02:33.780Z,16.8
2016-09-06T02:02:54.373Z,16.7
2016-09-06T02:03:14.937Z,16.6
2016-09-06T02:03:35.522Z,16.7
2016-09-06T02:03:56.090Z,16.6
2016-09-06T02:04:16.649Z,16.6
2016-09-06T02:04:37.206Z,16.6
2016-09-06T02:04:57.790Z,16.7
2016-09-06T02:05:18.359Z,16.6
2016-09-06T02:05:38.936Z,16.6
2016-09-06T02:05:59.505Z,16.7
2016-09-06T02:06:20.073Z,16.6
2016-09-06T02:06:40.649Z,16.7
2016-09-06T02:07:01.218Z,16.7
2016-09-06T02:07:21.790Z,16.6
2016-09-06T02:07:42.357Z,16.6
2016-09-06T02:08:02.921Z,16.5
2016-09-06T02:08:23.459Z,16.6
2016-09-06T02:08:44.029Z,16.6
2016-09-06T02:09:04.600Z,16.6
2016-09-06T02:09:25.158Z,16.5
2016-09-06T02:09:45.723Z,16.6
2016-09-06T02:10:06.285Z,16.5
2016-09-06T02:10:26.864Z,16.6
2016-09-06T02:10:47.435Z,16.6
2016-09-06T02:11:08.014Z,16.6
2016-09-06T02:11:28.593Z,16.6
2016-09-06T02:11:49.179Z,16.6
2016-09-06T02:12:09.765Z,16.6
2016-09-06T02:12:30.352Z,16.6
2016-09-06T02:12:50.920Z,16.7
2016-09-06T02:13:11.497Z,16.7
2016-09-06T02:13:32.082Z,16.6
2016-09-06T02:13:52.674Z,16.6
2016-09-06T02:14:13.255Z,16.6
2016-09-06T02:14:33.835Z,16.7
2016-09-06T02:14:54.398Z,16.7
2016-09-06T02:15:14.965Z,16.7
2016-09-06T02:15:35.555Z,16.7
2016-09-06T02:15:56.116Z,16.7
2016-09-06T02:16:16.680Z,16.7
2016-09-06T02:16:37.245Z,16.7
2016-09-06T02:16:57.826Z,16.7
2016-09-06T02:17:18.400Z,16.7
2016-09-06T02:17:38.970Z,16.8
2016-09-06T02:17:59.539Z,16.7
2016-09-06T02:18:20.121Z,16.7
2016-09-06T02:18:40.687Z,16.7
2016-09-06T02:19:01.262Z,16.8
2016-09-06T02:19:21.844Z,16.7
2016-09-06T02:19:42.422Z,16.7
2016-09-06T02:20:03.005Z,16.7
2016-09-06T02:20:23.584Z,16.8
2016-09-06T02:20:44.153Z,16.8
2016-09-06T02:21:04.718Z,16.8
2016-09-06T02:21:25.292Z,16.8
2016-09-06T02:21:45.875Z,16.7
2016-09-06T02:22:06.436Z,16.8
2016-09-06T02:22:27.004Z,16.8
2016-09-06T02:22:47.567Z,16.8
2016-09-06T02:23:08.191Z,16.8
2016-09-06T02:23:28.771Z,16.8
2016-09-06T02:23:49.342Z,16.8
2016-09-06T02:24:09.909Z,16.8
2016-09-06T02:24:30.469Z,16.8
2016-09-06T02:24:51.025Z,16.9
2016-09-06T02:25:11.576Z,16.8
2016-09-06T02:25:32.146Z,16.8
2016-09-06T02:25:52.714Z,16.8
2016-09-06T02:26:13.303Z,16.9
2016-09-06T02:26:33.868Z,16.9
2016-09-06T02:26:54.420Z,16.9
2016-09-06T02:27:14.981Z,16.9
2016-09-06T02:27:35.550Z,16.9
2016-09-06T02:27:56.109Z,16.9
2016-09-06T02:28:16.717Z,16.9
2016-09-06T02:28:37.274Z,16.9
2016-09-06T02:28:57.844Z,17
2016-09-06T02:29:18.411Z,17
2016-09-06T02:29:38.969Z,17
2016-09-06T02:29:59.539Z,17
2016-09-06T02:30:20.093Z,17
2016-09-06T02:30:40.657Z,17
2016-09-06T02:31:01.245Z,16.9
2016-09-06T02:31:21.818Z,17
2016-09-06T02:31:42.397Z,17
2016-09-06T02:32:02.969Z,16.9
2016-09-06T02:32:23.548Z,17.1
2016-09-06T02:32:44.130Z,17
2016-09-06T02:33:04.695Z,17
2016-09-06T02:33:25.281Z,17
2016-09-06T02:33:45.854Z,17
2016-09-06T02:34:06.436Z,17
2016-09-06T02:34:27.006Z,17
2016-09-06T02:34:47.578Z,17
2016-09-06T02:35:08.140Z,17.1
2016-09-06T02:35:28.704Z,17.1
2016-09-06T02:35:49.263Z,17.1
2016-09-06T02:36:09.875Z,17.1
2016-09-06T02:36:30.444Z,17.1
2016-09-06T02:36:51.005Z,17
2016-09-06T02:37:11.585Z,17
2016-09-06T02:37:32.163Z,17.1
2016-09-06T02:37:52.729Z,17.1
2016-09-06T02:38:13.345Z,17.1
2016-09-06T02:38:33.895Z,17
2016-09-06T02:38:54.467Z,17.1
2016-09-06T02:39:15.031Z,17
2016-09-06T02:39:35.601Z,17.2
2016-09-06T02:39:56.208Z,17
2016-09-06T02:40:16.776Z,17.1
2016-09-06T02:40:37.358Z,17.2
2016-09-06T02:40:57.938Z,17.1
2016-09-06T02:41:18.523Z,17.1
2016-09-06T02:41:39.089Z,17.1
2016-09-06T02:41:59.657Z,17.1
2016-09-06T02:42:20.216Z,17.1
2016-09-06T02:42:40.775Z,17.1
2016-09-06T02:43:01.339Z,17.2
2016-09-06T02:43:21.910Z,17.1
2016-09-06T02:43:42.493Z,17.2
2016-09-06T02:44:03.061Z,17.2
2016-09-06T02:44:23.659Z,17.1
2016-09-06T02:44:44.225Z,17.1
2016-09-06T02:45:04.800Z,17.2
2016-09-06T02:45:25.346Z,17.1
2016-09-06T02:45:45.912Z,17.1
2016-09-06T02:46:06.488Z,17.1
2016-09-06T02:46:27.072Z,17.2
2016-09-06T02:46:47.641Z,17.2
2016-09-06T02:47:08.225Z,17.2
2016-09-06T02:47:28.816Z,17.2
2016-09-06T02:47:49.384Z,17.1
2016-09-06T02:48:09.935Z,17.1
2016-09-06T02:48:30.538Z,17.1
2016-09-06T02:48:51.095Z,17.1
2016-09-06T02:49:11.671Z,17.2
2016-09-06T02:49:32.243Z,17.2
2016-09-06T02:49:52.819Z,17
2016-09-06T02:50:13.376Z,17.2
2016-09-06T02:50:33.963Z,17.1
2016-09-06T02:50:54.560Z,17.1
2016-09-06T02:51:15.155Z,17.1
2016-09-06T02:51:35.713Z,17.1
2016-09-06T02:51:56.283Z,17.2
2016-09-06T02:52:16.877Z,17.1
2016-09-06T02:52:37.419Z,17.1
2016-09-06T02:52:57.985Z,17.1
2016-09-06T02:53:18.571Z,17
2016-09-06T02:53:39.145Z,17.1
2016-09-06T02:53:59.730Z,17.1
2016-09-06T02:54:20.307Z,17.2
2016-09-06T02:54:40.880Z,17
2016-09-06T02:55:01.455Z,17.1
2016-09-06T02:55:22.048Z,17.1
2016-09-06T02:55:42.614Z,17.2
2016-09-06T02:56:03.209Z,17
2016-09-06T02:56:23.804Z,17.1
2016-09-06T02:56:44.376Z,17.1
2016-09-06T02:57:04.957Z,17.1
2016-09-06T02:57:25.493Z,17
2016-09-06T02:57:46.057Z,17.1
2016-09-06T02:58:06.632Z,17.1
2016-09-06T02:58:27.171Z,17
2016-09-06T02:58:47.761Z,17.1
2016-09-06T02:59:08.320Z,17.1
2016-09-06T02:59:28.868Z,17
2016-09-06T02:59:49.457Z,17.1
2016-09-06T03:00:10.052Z,17
2016-09-06T03:00:30.633Z,17.1
2016-09-06T03:00:51.285Z,17
2016-09-06T03:01:11.856Z,17.1
2016-09-06T03:01:32.421Z,17.1
2016-09-06T03:01:53.015Z,17.1
2016-09-06T03:02:13.549Z,17.1
2016-09-06T03:02:34.104Z,17
2016-09-06T03:02:54.664Z,17.1
2016-09-06T03:03:15.252Z,17
2016-09-06T03:03:35.823Z,17
2016-09-06T03:03:56.394Z,17
2016-09-06T03:04:16.981Z,17
2016-09-06T03:04:37.578Z,17
2016-09-06T03:04:58.144Z,16.9
2016-09-06T03:05:18.725Z,17
2016-09-06T03:05:39.319Z,16.9
2016-09-06T03:05:59.883Z,17
2016-09-06T03:06:20.468Z,17
2016-09-06T03:06:41.049Z,16.9
2016-09-06T03:07:01.617Z,17
2016-09-06T03:07:22.168Z,17
2016-09-06T03:07:42.726Z,17
2016-09-06T03:08:03.282Z,17
2016-09-06T03:08:23.838Z,16.9
2016-09-06T03:08:44.405Z,16.8
2016-09-06T03:09:04.958Z,16.9
2016-09-06T03:09:25.571Z,16.9
2016-09-06T03:09:46.162Z,16.9
2016-09-06T03:10:06.742Z,16.9
2016-09-06T03:10:27.300Z,16.9
2016-09-06T03:10:47.861Z,16.9
2016-09-06T03:11:08.430Z,16.9
2016-09-06T03:11:29.027Z,16.8
2016-09-06T03:11:49.595Z,16.9
2016-09-06T03:12:10.164Z,16.8
2016-09-06T03:12:30.710Z,16.8
2016-09-06T03:12:51.290Z,16.9
2016-09-06T03:13:11.869Z,16.8
2016-09-06T03:13:32.453Z,16.8
2016-09-06T03:13:53.054Z,16.8
2016-09-06T03:14:13.617Z,16.8
2016-09-06T03:14:34.186Z,16.8
2016-09-06T03:14:54.764Z,16.9
2016-09-06T03:15:15.340Z,17
2016-09-06T03:15:35.906Z,16.9
2016-09-06T03:15:56.459Z,16.9
2016-09-06T03:16:17.014Z,16.9
2016-09-06T03:16:37.595Z,16.9
2016-09-06T03:16:58.179Z,16.9
2016-09-06T03:17:18.775Z,16.9
2016-09-06T03:17:39.336Z,16.8
2016-09-06T03:17:59.903Z,16.9
2016-09-06T03:18:20.456Z,17
2016-09-06T03:18:41.011Z,16.9
2016-09-06T03:19:01.572Z,16.9
2016-09-06T03:19:22.180Z,16.9
2016-09-06T03:19:42.762Z,16.9
2016-09-06T03:20:03.326Z,16.9
2016-09-06T03:20:23.888Z,16.9
2016-09-06T03:20:44.499Z,16.9
2016-09-06T03:21:05.090Z,16.9
2016-09-06T03:21:25.669Z,16.9
2016-09-06T03:21:46.262Z,16.9
2016-09-06T03:22:06.939Z,16.8
2016-09-06T03:22:27.503Z,16.9
2016-09-06T03:22:48.067Z,16.9
2016-09-06T03:23:08.609Z,16.9
2016-09-06T03:23:29.210Z,16.8
2016-09-06T03:23:49.786Z,16.9
2016-09-06T03:24:10.369Z,16.9
2016-09-06T03:24:30.931Z,16.9
2016-09-06T03:24:51.534Z,16.8
2016-09-06T03:25:12.113Z,16.9
2016-09-06T03:25:32.711Z,16.9
2016-09-06T03:25:53.302Z,16.9
2016-09-06T03:26:13.857Z,16.9
2016-09-06T03:26:34.413Z,16.8
2016-09-06T03:26:54.969Z,17
2016-09-06T03:27:15.556Z,16.9
2016-09-06T03:27:36.151Z,16.8
2016-09-06T03:27:56.714Z,16.9
2016-09-06T03:28:17.267Z,16.9
2016-09-06T03:28:37.831Z,16.9
2016-09-06T03:28:58.406Z,16.9
2016-09-06T03:29:18.972Z,17
2016-09-06T03:29:39.587Z,16.9
2016-09-06T03:30:00.167Z,16.9
2016-09-06T03:30:20.721Z,16.9
2016-09-06T03:30:41.280Z,16.9
2016-09-06T03:31:01.853Z,17
2016-09-06T03:31:22.429Z,17
2016-09-06T03:31:43.013Z,16.9
2016-09-06T03:32:03.595Z,16.9
2016-09-06T03:32:24.131Z,16.9
2016-09-06T03:32:44.700Z,16.9
2016-09-06T03:33:05.265Z,17
2016-09-06T03:33:25.820Z,16.9
2016-09-06T03:33:46.390Z,16.9
2016-09-06T03:34:06.954Z,16.9
2016-09-06T03:34:27.537Z,17
2016-09-06T03:34:48.071Z,16.9
2016-09-06T03:35:08.647Z,16.9
2016-09-06T03:35:29.233Z,16.9
2016-09-06T03:35:49.797Z,16.9
2016-09-06T03:36:10.370Z,16.9
2016-09-06T03:36:30.931Z,16.9
2016-09-06T03:36:51.506Z,16.8
2016-09-06T03:37:12.097Z,16.9
2016-09-06T03:37:32.670Z,16.9
2016-09-06T03:37:53.209Z,16.8
2016-09-06T03:38:13.785Z,16.9
2016-09-06T03:38:34.336Z,16.9
2016-09-06T03:38:54.905Z,16.9
2016-09-06T03:39:15.484Z,16.9
2016-09-06T03:39:36.058Z,16.8
2016-09-06T03:39:56.618Z,16.8
2016-09-06T03:40:17.185Z,16.8
2016-09-06T03:40:37.750Z,16.8
2016-09-06T03:40:58.311Z,16.8
2016-09-06T03:41:18.895Z,16.8
2016-09-06T03:41:39.461Z,16.8
2016-09-06T03:42:00.032Z,16.9
2016-09-06T03:42:20.598Z,16.9
2016-09-06T03:42:41.175Z,16.8
2016-09-06T03:43:01.736Z,16.8
2016-09-06T03:43:22.328Z,16.8
2016-09-06T03:43:42.887Z,16.8
2016-09-06T03:44:03.445Z,16.9
2016-09-06T03:44:24.017Z,16.8
2016-09-06T03:44:44.573Z,16.8
2016-09-06T03:45:05.151Z,16.8
2016-09-06T03:45:25.710Z,16.9
2016-09-06T03:45:46.287Z,16.9
2016-09-06T03:46:06.847Z,16.8
2016-09-06T03:46:27.432Z,16.9
2016-09-06T03:46:48.017Z,16.9
2016-09-06T03:47:08.586Z,16.8
2016-09-06T03:47:29.189Z,16.8
2016-09-06T03:47:49.732Z,16.8
2016-09-06T03:48:10.283Z,16.9
2016-09-06T03:48:30.858Z,16.9
2016-09-06T03:48:51.430Z,16.8
2016-09-06T03:49:12.015Z,16.8
2016-09-06T03:49:32.596Z,16.8
2016-09-06T03:49:53.178Z,16.8
2016-09-06T03:50:13.720Z,16.8
2016-09-06T03:50:34.285Z,16.8
2016-09-06T03:50:54.892Z,16.8
2016-09-06T03:51:15.463Z,16.8
2016-09-06T03:51:36.028Z,16.9
2016-09-06T03:51:56.600Z,16.7
2016-09-06T03:52:17.151Z,16.8
2016-09-06T03:52:37.711Z,16.8
2016-09-06T03:52:58.326Z,16.8
2016-09-06T03:53:18.902Z,16.8
2016-09-06T03:53:39.496Z,16.8
2016-09-06T03:54:00.062Z,16.8
2016-09-06T03:54:20.668Z,16.8
2016-09-06T03:54:41.238Z,16.7
2016-09-06T03:55:01.809Z,16.8
2016-09-06T03:55:22.396Z,16.8
2016-09-06T03:55:42.976Z,16.8
2016-09-06T03:56:03.560Z,16.8
2016-09-06T03:56:24.137Z,16.8
2016-09-06T03:56:44.741Z,16.8
2016-09-06T03:57:05.316Z,16.8
2016-09-06T03:57:25.890Z,16.7
2016-09-06T03:57:46.444Z,16.8
2016-09-06T03:58:06.996Z,16.9
2016-09-06T03:58:27.651Z,16.8
2016-09-06T03:58:48.220Z,16.9
2016-09-06T03:59:08.789Z,16.8
2016-09-06T03:59:29.350Z,16.9
2016-09-06T03:59:49.892Z,16.9
2016-09-06T04:00:10.468Z,16.8
2016-09-06T04:00:31.047Z,16.9
2016-09-06T04:00:51.609Z,16.8
2016-09-06T04:01:12.163Z,16.8
2016-09-06T04:01:32.758Z,16.8
2016-09-06T04:01:53.323Z,16.8
2016-09-06T04:02:13.906Z,16.8
2016-09-06T04:02:34.457Z,16.8
2016-09-06T04:02:55.046Z,16.8
2016-09-06T04:03:15.617Z,16.8
2016-09-06T04:03:36.172Z,16.8
2016-09-06T04:03:56.746Z,16.8
2016-09-06T04:04:17.337Z,16.8
2016-09-06T04:04:37.922Z,16.8
2016-09-06T04:04:58.499Z,16.9
2016-09-06T04:05:19.103Z,16.8
2016-09-06T04:05:39.665Z,16.8
2016-09-06T04:06:00.240Z,16.8
2016-09-06T04:06:20.825Z,16.9
2016-09-06T04:06:41.400Z,16.8
2016-09-06T04:07:01.978Z,16.7
2016-09-06T04:07:22.562Z,16.9
2016-09-06T04:07:43.111Z,16.8
2016-09-06T04:08:03.667Z,16.8
2016-09-06T04:08:24.228Z,16.8
2016-09-06T04:08:44.818Z,16.8
2016-09-06T04:09:05.388Z,16.8
2016-09-06T04:09:25.945Z,16.8
2016-09-06T04:09:46.534Z,16.9
2016-09-06T04:10:07.109Z,16.9
2016-09-06T04:10:27.674Z,16.9
2016-09-06T04:10:48.314Z,16.8
2016-09-06T04:11:08.910Z,16.8
2016-09-06T04:11:29.486Z,16.9
2016-09-06T04:11:50.068Z,16.9
2016-09-06T04:12:10.652Z,16.9
2016-09-06T04:12:31.231Z,16.9
2016-09-06T04:12:51.811Z,17
2016-09-06T04:13:12.350Z,16.9
2016-09-06T04:13:32.928Z,16.9
2016-09-06T04:13:53.520Z,16.9
2016-09-06T04:14:14.125Z,17
2016-09-06T04:14:34.726Z,16.9
2016-09-06T04:14:55.273Z,16.9
2016-09-06T04:15:15.830Z,16.8
2016-09-06T04:15:36.387Z,16.9
2016-09-06T04:15:56.964Z,16.8
2016-09-06T04:16:17.527Z,16.8
2016-09-06T04:16:38.111Z,16.8
2016-09-06T04:16:58.647Z,16.8
2016-09-06T04:17:19.232Z,16.8
2016-09-06T04:17:39.816Z,16.8
2016-09-06T04:18:00.371Z,16.8
2016-09-06T04:18:20.970Z,16.9
2016-09-06T04:18:41.559Z,16.8
2016-09-06T04:19:02.133Z,16.9
2016-09-06T04:19:22.690Z,16.8
2016-09-06T04:19:43.260Z,16.8
2016-09-06T04:20:03.836Z,16.8
2016-09-06T04:20:24.418Z,16.8
2016-09-06T04:20:44.977Z,16.8
2016-09-06T04:21:05.515Z,16.8
2016-09-06T04:21:26.069Z,16.8
2016-09-06T04:21:46.636Z,16.9
2016-09-06T04:22:07.202Z,16.8
2016-09-06T04:22:27.806Z,16.8
2016-09-06T04:22:48.364Z,16.8
2016-09-06T04:23:08.934Z,16.8
2016-09-06T04:23:29.493Z,16.8
2016-09-06T04:23:50.057Z,16.8
2016-09-06T04:24:10.699Z,16.8
2016-09-06T04:24:31.243Z,16.8
2016-09-06T04:24:51.789Z,16.8
2016-09-06T04:25:12.340Z,16.8
2016-09-06T04:25:32.911Z,16.8
2016-09-06T04:25:53.494Z,16.8
2016-09-06T04:26:14.071Z,16.8
2016-09-06T04:26:34.654Z,16.7
2016-09-06T04:26:55.211Z,16.9
2016-09-06T04:27:15.774Z,16.8
2016-09-06T04:27:36.356Z,16.8
2016-09-06T04:27:57.047Z,16.8
2016-09-06T04:28:17.619Z,16.8
2016-09-06T04:28:38.203Z,16.8
2016-09-06T04:28:58.769Z,16.7
2016-09-06T04:29:19.349Z,16.8
2016-09-06T04:29:39.938Z,16.7
2016-09-06T04:30:00.533Z,16.8
2016-09-06T04:30:21.134Z,16.8
2016-09-06T04:30:41.699Z,16.8
2016-09-06T04:31:02.286Z,16.8
2016-09-06T04:31:22.861Z,16.8
2016-09-06T04:31:43.454Z,16.8
2016-09-06T04:32:04.022Z,16.7
2016-09-06T04:32:24.682Z,16.7
2016-09-06T04:32:45.254Z,16.7
2016-09-06T04:33:05.791Z,16.8
2016-09-06T04:33:26.366Z,16.8
2016-09-06T04:33:47.810Z,16.7
2016-09-06T04:34:08.397Z,16.7
2016-09-06T04:34:28.970Z,16.8
2016-09-06T04:34:49.537Z,16.7
2016-09-06T04:35:10.118Z,16.7
2016-09-06T04:35:30.667Z,16.7
2016-09-06T04:35:51.231Z,16.7
2016-09-06T04:36:11.815Z,16.7